Impacts TAF Board INFO
FOR SITUATIONAL AWARENESS. NOT TO BE USED FOR FLIGHT PLANNING PURPOSES.
IDs:

KJFK - New York/Kennedy Int, NY, US

Issued at 1338 UTC 22 Feb 2018
Updated at 1434 UTC 22 Feb 2018
Potential Impact None Slight Moderate High
Time1351Z 22/15Z 22/16Z 22/17Z 22/18Z 22/19Z 22/20Z 22/21Z 22/22Z 22/23Z 23/00Z 23/01Z 23/02Z 23/03Z>>
Type OBS PRVL
  [TEMP]  
PRVL
  [TEMP]  
PRVL PRVL PRVL PRVL PRVL
  [TEMP]  
PRVL
  [TEMP]  
PRVL
  [TEMP]  
PRVL PRVL PRVL PRVL
VIS 10 >6 >6 5 5 5 5 3
  [3]  
3
  [3]  
3
  [3]  
6 6 6 6
CIG 26 50
  [25]  
50
  [25]  
15 15 15 15 8
  [8]  
8
  [8]  
8
  [8]  
8 8 8 8
Cover OVC OVC
  [BKN]  
OVC
  [BKN]  
OVC OVC OVC OVC OVC
  [OVC]  
OVC
  [OVC]  
OVC
  [OVC]  
OVC OVC OVC OVC
FltCat MVFR VFR
  [MVFR]  
VFR
  [MVFR]  
MVFR MVFR MVFR MVFR IFR
  [IFR]  
IFR
  [IFR]  
IFR
  [IFR]  
IFR IFR IFR IFR
WX -- -RA
  [--]  
-RA
  [--]  
-RA BR -RA BR -RA BR -RA BR -RA BR
  [-RA -PL]  
-RA BR
  [-RA -PL]  
-RA BR
  [-RA -PL]  
BR BR BR BR
WDir 30 20
[20]
20
[20]
40 40 40 40 40
[40]
40
[40]
40
[40]
40 40 40 40
WSpd 16 12
  [12]  
12
  [12]  
14 14 14 14 12
  [12]  
12
  [12]  
12
  [12]  
10 10 10 10
WGst 22 19
  [19]  
19
  [19]  
21 21 21 21 18
  [18]  
18
  [18]  
18
  [18]  
-- -- -- --

Raw TAF
KJFK 221338Z 2214/2318 02012G19KT P6SM -RA SCT025 OVC050
  TEMPO 2214/2217 BKN025
  FM221700 04014G21KT 5SM -RA BR OVC015
  FM222100 04012G18KT 3SM -RA BR OVC008
  TEMPO 2221/2224 3SM -RAPL
  FM230000 04010KT 6SM BR BKN008 OVC015
  FM230600 04008KT P6SM BKN015
  FM231300 08009KT P6SM OVC012
  FM231600 08009KT 5SM -RA OVC008


Raw METAR
KJFK 221351Z 03016G22KT 10SM OVC026 08/03 A3058 RMK AO2 SLP353 T00780028
KJFK 221316Z 01016KT 10SM BKN024 OVC050 08/03 A3057 RMK AO2 T00780033
KJFK 221251Z 01015KT 10SM SCT024 BKN032 OVC050 08/03 A3057 RMK AO2 SLP350 T00780028
KJFK 221151Z 02013KT 10SM OVC055 08/02 A3053 RMK AO2 SLP338 70003 T00780022 10139 20078 50010

METAR Board
Radar Display
Forecast Discussion

FOR SITUATIONAL AWARENESS. NOT TO BE USED FOR FLIGHT PLANNING PURPOSES.